Latest Weather Observations for Low Head

IDT60801

Issued at 6:01 pm EDT Sunday 1 March 2015 (issued every 30 minutes, with the page automatically refreshed every 10 minutes)

About weather observations | Map of weather stations | Latest weather observations for TAS | Other Formats
Station Details ID: 091293 Name: LOW HEAD Lat: -41.05 Lon: 146.79 Height: 3.0 m
Data from the previous 72 hours. | See also: Recent months at Low Head
Date/Time
EDT
Temp
°C
App
Temp
°C
Dew
Point
Rel
Hum
%
Delta-T
°C
Wind Press
QNH
hPa
Press
MSL
hPa
Rain
since 9 am
mm
Dir
 
Spd
km/h
Gust
km/h
Spd
kts
Gust
kts
01/06:00pm 20.4 13.6 11.9 58 4.7 W 39 44 21 24 1011.4 1011.4 0.0
01/05:30pm 20.4 13.8 12.6 61 4.4 WNW 39 44 21 24 1011.2 1011.2 0.0
01/05:00pm 20.5 12.9 11.7 57 4.9 WNW 43 48 23 26 1010.9 1010.9 0.0
01/04:30pm 20.6 12.6 11.0 54 5.3 W 44 50 24 27 1010.7 1010.7 0.0
01/04:00pm 20.8 14.2 11.4 55 5.2 WNW 37 43 20 23 1010.3 1010.3 0.0
01/03:30pm 20.6 13.7 11.5 56 5.0 W 39 46 21 25 1010.2 1010.2 0.0
01/03:00pm 20.7 13.8 11.6 56 5.1 WNW 39 46 21 25 1010.0 1010.0 0.0
01/02:30pm 20.8 13.5 11.4 55 5.2 WNW 41 46 22 25 1009.9 1009.9 0.0
01/02:00pm 20.0 13.3 11.0 56 4.9 WNW 37 44 20 24 1009.6 1009.6 0.0
01/01:30pm 20.0 13.7 11.2 57 4.8 WNW 35 43 19 23 1009.4 1009.4 0.0
01/01:00pm 19.6 12.0 10.6 56 4.9 WNW 41 48 22 26 1009.3 1009.3 0.0
01/12:30pm 19.7 13.7 10.7 56 4.9 WNW 33 39 18 21 1009.1 1009.1 0.0
01/12:00pm 18.9 12.6 11.0 60 4.3 W 35 41 19 22 1008.8 1008.8 0.0
01/11:30am 18.7 12.7 10.8 60 4.3 W 33 39 18 21 1008.7 1008.7 0.0
01/11:00am 18.2 11.9 9.8 58 4.5 W 33 41 18 22 1008.3 1008.3 0.0
01/10:30am 18.3 13.3 11.1 63 3.9 WSW 28 33 15 18 1008.0 1008.0 0.0
01/10:00am 17.5 11.7 10.9 65 3.6 WSW 32 41 17 22 1007.3 1007.3 0.0
01/09:30am 16.6 10.1 10.5 67 3.2 WSW 35 39 19 21 1006.7 1006.7 0.0
01/09:00am 16.2 9.8 10.7 70 2.9 WSW 35 43 19 23 1006.3 1006.3 4.2
01/08:30am 15.9 9.2 11.1 73 2.6 WSW 37 43 20 23 1005.7 1005.7 4.2
01/08:00am 15.8 8.7 11.0 73 2.6 WSW 39 44 21 24 1004.9 1004.9 4.2
01/07:30am 15.8 9.5 11.0 73 2.6 WSW 35 43 19 23 1004.2 1004.2 4.2
01/07:00am 15.5 8.7 10.7 73 2.6 WSW 37 43 20 23 1003.7 1003.7 4.2
01/06:30am 15.8 9.4 10.8 72 2.7 WSW 35 43 19 23 1003.0 1003.0 4.2
01/06:00am 16.2 9.9 10.9 71 2.8 WSW 35 41 19 22 1002.5 1002.5 4.2
01/05:30am 16.2 9.8 10.7 70 2.9 WSW 35 41 19 22 1002.1 1002.1 4.2
01/05:00am 16.2 9.9 10.9 71 2.8 WSW 35 41 19 22 1001.9 1001.9 4.2
01/04:30am 16.2 12.2 11.8 75 2.4 SW 24 39 13 21 1001.9 1001.9 4.2
01/04:00am 16.6 11.9 11.9 74 2.6 W 28 37 15 20 1001.7 1001.7 4.2
01/03:30am 16.7 10.9 11.4 71 2.9 W 33 39 18 21 1001.9 1001.9 4.2
01/03:00am 16.5 12.3 12.5 77 2.2 WSW 26 33 14 18 1001.5 1001.5 4.2
01/02:30am 17.0 12.2 12.9 77 2.3 WSW 30 35 16 19 1001.6 1001.6 4.2
01/02:00am 17.4 11.3 12.9 75 2.5 W 37 43 20 23 1001.5 1001.5 4.2
01/01:30am 17.9 11.9 13.4 75 2.5 W 37 43 20 23 1001.5 1001.5 4.2
01/01:00am 18.3 14.1 15.6 84 1.6 W 32 41 17 22 1001.6 1001.6 4.2
01/12:30am 18.1 13.7 16.6 91 0.9 WNW 35 39 19 21 1001.5 1001.5 4.2
01/12:00am 18.5 14.4 17.3 93 0.7 WNW 35 39 19 21 1001.8 1001.8 4.2
 
Date/Time
EDT
Temp
°C
App
Temp
°C
Dew
Point
Rel
Hum
%
Delta-T
°C
Wind Press
QNH
hPa
Press
MSL
hPa
Rain
since 9 am
mm
Dir
 
Spd
km/h
Gust
km/h
Spd
kts
Gust
kts
28/11:30pm 18.5 14.4 17.3 93 0.7 WNW 35 39 19 21 1002.0 1002.0 4.0
28/11:00pm 18.7 15.2 17.5 93 0.7 WNW 32 37 17 20 1001.8 1001.8 4.0
28/10:30pm 18.9 15.9 17.7 93 0.7 NW 30 41 16 22 1002.2 1002.2 3.8
28/10:00pm 19.1 16.9 17.9 93 0.7 NW 26 33 14 18 1002.0 1002.0 2.8
28/09:30pm 19.1 16.5 17.8 92 0.8 NNW 28 32 15 17 1001.7 1001.7 2.6
28/09:00pm 19.2 17.8 17.9 92 0.8 NNW 22 26 12 14 1001.0 1001.0 2.6
28/08:30pm 19.4 18.4 17.9 91 0.9 NNW 20 28 11 15 1001.0 1001.0 2.4
28/08:00pm 19.7 18.7 18.0 90 1.1 NNW 20 24 11 13 1001.1 1001.1 1.2
28/07:30pm 19.6 18.6 17.9 90 1.0 N 20 24 11 13 1000.8 1000.8 1.2
28/07:00pm 19.6 18.2 17.9 90 1.1 N 22 26 12 14 1000.7 1000.7 1.2
28/06:30pm 19.7 18.0 18.0 90 1.0 N 24 28 13 15 1000.9 1000.9 1.2
28/06:00pm 19.6 17.7 17.7 89 1.2 NNW 24 28 13 15 1001.1 1001.1 1.2
28/05:30pm 19.8 18.1 18.1 90 1.1 NNW 24 30 13 16 1001.3 1001.3 1.2
28/05:00pm 19.3 17.6 18.1 93 0.7 N 24 28 13 15 1001.7 1001.7 1.2
28/04:30pm 19.0 16.9 18.0 94 0.6 N 26 32 14 17 1001.9 1001.9 1.2
28/04:00pm 18.7 15.3 17.7 94 0.6 N 32 39 17 21 1002.0 1002.0 1.2
28/03:30pm 18.8 15.5 18.0 95 0.5 N 32 39 17 21 1002.4 1002.4 1.2
28/03:00pm 18.5 15.4 17.5 94 0.6 NNE 30 35 16 19 1002.9 1002.9 1.0
28/02:30pm 18.5 15.1 16.8 90 1.0 NNE 30 32 16 17 1003.6 1003.6 0.0
28/02:00pm 18.6 16.3 16.6 88 1.2 N 24 30 13 16 1004.0 1004.0 0.0
28/01:30pm 18.3 16.6 16.3 88 1.2 N 20 24 11 13 1004.5 1004.5 0.0
28/01:00pm 18.5 16.8 15.7 84 1.7 NNE 19 22 10 12 1004.8 1004.8 0.0
28/12:30pm 18.1 15.9 14.8 81 1.9 NNE 20 24 11 13 1005.0 1005.0 0.0
28/12:00pm 17.8 15.3 14.1 79 2.1 NNE 20 24 11 13 1005.5 1005.5 0.0
28/11:30am 17.9 15.4 14.0 78 2.2 NNE 20 24 11 13 1006.0 1006.0 0.0
28/11:00am 17.6 15.1 13.5 77 2.3 NE 19 20 10 11 1006.0 1006.0 0.0
28/10:30am 17.6 15.0 13.1 75 2.5 NNE 19 20 10 11 1006.1 1006.1 0.0
28/10:00am 17.6 15.0 13.3 76 2.4 NNE 19 22 10 12 1006.6 1006.6 0.0
28/09:30am 17.6 14.8 13.3 76 2.4 NNE 20 24 11 13 1006.7 1006.7 0.0
28/09:00am 17.5 14.8 12.8 74 2.6 NNE 19 24 10 13 1006.6 1006.6 0.0
28/08:30am 17.4 14.7 12.9 75 2.5 NNE 19 26 10 14 1006.8 1006.8 0.0
28/08:00am 17.5 14.3 13.2 76 2.4 NNE 22 28 12 15 1006.7 1006.7 0.0
28/07:30am 17.3 13.7 13.2 77 2.3 NNE 24 28 13 15 1006.6 1006.6 0.0
28/07:00am 16.9 14.0 12.8 77 2.3 NNE 20 26 11 14 1006.4 1006.4 0.0
28/06:30am 13.8 12.2 11.7 87 1.1 SE 11 15 6 8 1006.9 1006.9 0.0
28/06:00am 13.5 11.9 11.6 88 1.0 SE 11 15 6 8 1007.2 1007.2 0.0
28/05:30am 13.4 11.7 11.3 87 1.1 SE 11 17 6 9 1007.4 1007.4 0.0
28/05:00am 12.9 10.3 10.6 86 1.2 SSE 15 19 8 10 1007.3 1007.3 0.0
28/04:30am 12.7 10.0 10.2 85 1.3 SSE 15 19 8 10 1007.4 1007.4 0.0
28/04:00am 13.1 10.1 10.5 84 1.4 SSE 17 19 9 10 1007.9 1007.9 0.0
28/03:30am 13.1 10.4 10.3 83 1.4 SSE 15 19 8 10 1008.3 1008.3 0.0
28/03:00am 13.4 10.4 10.6 83 1.5 SSE 17 20 9 11 1008.5 1008.5 0.0
28/02:30am 13.6 10.8 11.3 86 1.2 SSE 17 24 9 13 1008.7 1008.7 0.0
28/02:00am 13.8 10.8 11.8 88 1.1 SSE 19 24 10 13 1008.5 1008.5 0.0
28/01:30am 14.2 11.3 12.2 88 1.1 SSE 19 22 10 12 1008.7 1008.7 0.0
28/01:00am 14.1 11.5 12.0 87 1.1 SSE 17 20 9 11 1008.5 1008.5 0.0
28/12:30am 14.4 12.9 11.9 85 1.3 SSE 11 15 6 8 1008.9 1008.9 0.0
28/12:00am 14.6 13.5 11.9 84 1.5 S 9 13 5 7 1008.9 1008.9 0.0
 
Date/Time
EDT
Temp
°C
App
Temp
°C
Dew
Point
Rel
Hum
%
Delta-T
°C
Wind Press
QNH
hPa
Press
MSL
hPa
Rain
since 9 am
mm
Dir
 
Spd
km/h
Gust
km/h
Spd
kts
Gust
kts
27/11:30pm 15.0 13.8 12.9 87 1.2 SSE 11 15 6 8 1009.2 1009.2 0.0
27/11:00pm 14.9 13.3 12.8 87 1.2 SSE 13 15 7 8 1009.0 1009.0 0.0
27/10:30pm 15.6 13.7 13.1 85 1.4 SSE 15 19 8 10 1009.1 1009.1 0.0
27/10:00pm 15.8 14.6 12.9 83 1.6 SSE 11 13 6 7 1009.1 1009.1 0.0
27/09:30pm 16.6 15.5 13.1 80 2.0 SE 11 13 6 7 1008.7 1008.7 0.0
27/09:00pm 17.3 16.6 13.2 77 2.3 ESE 9 15 5 8 1008.2 1008.2 0.0
27/08:30pm 18.0 18.9 12.9 72 2.9 CALM 0 0 0 0 1007.9 1007.9 0.0
27/08:00pm 18.6 18.1 13.7 73 2.8 NW 9 15 5 8 1007.8 1007.8 0.0
27/07:30pm 19.3 17.1 14.3 73 2.9 NW 19 22 10 12 1007.6 1007.6 0.0
27/07:00pm 19.3 16.2 13.5 69 3.3 WNW 22 26 12 14 1007.5 1007.5 0.0
27/06:30pm 19.2 15.0 13.4 69 3.3 WNW 28 33 15 18 1007.8 1007.8 0.0
27/06:00pm 18.7 14.1 12.2 66 3.6 NW 28 32 15 17 1007.6 1007.6 0.0
27/05:30pm 18.9 14.4 12.6 67 3.5 NW 28 33 15 18 1007.6 1007.6 0.0
27/05:00pm 18.4 15.9 12.2 67 3.4 NW 17 22 9 12 1007.8 1007.8 0.0
27/04:30pm 18.7 16.5 12.0 65 3.7 NW 15 17 8 9 1008.0 1008.0 0.0
27/04:00pm 18.6 16.4 12.1 66 3.6 NW 15 20 8 11 1008.0 1008.0 0.0
27/03:30pm 17.8 16.0 12.0 69 3.2 NNW 13 19 7 10 1008.4 1008.4 0.0
27/03:00pm 17.9 15.1 11.2 65 3.6 NNW 17 20 9 11 1008.8 1008.8 0.0
27/02:30pm 18.8 14.7 11.6 63 4.0 NNW 24 30 13 16 1009.3 1009.3 0.0
27/02:00pm 18.6 15.3 11.7 64 3.8 NNW 20 26 11 14 1009.4 1009.4 0.0
27/01:30pm 18.5 14.7 11.1 62 4.0 NNW 22 28 12 15 1009.1 1009.1 0.0
27/01:00pm 18.4 14.1 10.7 61 4.2 N 24 28 13 15 1009.7 1009.7 0.0
27/12:30pm 18.1 13.9 11.2 64 3.7 N 24 28 13 15 1009.6 1009.6 0.0
27/12:00pm 18.0 13.8 11.1 64 3.7 N 24 28 13 15 1009.7 1009.7 0.0
27/11:30am 17.5 13.7 11.3 67 3.4 N 22 26 12 14 1009.8 1009.8 0.0
27/11:00am 17.0 13.6 11.1 68 3.2 NNW 20 24 11 13 1010.2 1010.2 0.0
27/10:30am 16.1 15.3 13.9 87 1.2 SSE 11 15 6 8 1010.3 1010.3 0.0
27/10:00am 15.1 13.7 13.5 90 0.9 SSE 13 17 7 9 1010.3 1010.3 0.0
27/09:30am 14.6 12.7 13.0 90 0.9 SSE 15 19 8 10 1010.1 1010.1 0.0
27/09:00am 13.6 11.4 12.2 91 0.8 SE 15 20 8 11 1009.9 1009.9 3.2
27/08:30am 13.5 11.2 11.9 90 0.9 SSE 15 20 8 11 1010.1 1010.1 2.6
27/08:00am 13.5 10.4 11.6 88 1.0 SSE 19 22 10 12 1010.0 1010.0 2.2
27/07:30am 13.3 10.2 11.5 89 1.0 SE 19 24 10 13 1009.5 1009.5 1.4
27/07:00am 13.6 11.5 11.3 86 1.2 SE 13 20 7 11 1009.6 1009.6 1.2
27/06:30am 14.5 12.0 12.2 86 1.2 SSE 17 22 9 12 1009.4 1009.4 0.8
27/06:00am 14.3 11.2 11.5 83 1.5 SSE 19 24 10 13 1009.1 1009.1 0.2
27/05:30am 14.5 11.2 11.6 83 1.6 SSE 20 24 11 13 1009.0 1009.0 0.2
27/05:00am 14.6 12.0 12.1 85 1.4 SSE 17 20 9 11 1009.0 1009.0 0.2
27/04:30am 14.6 12.3 11.9 84 1.5 SSE 15 20 8 11 1009.2 1009.2 0.2
27/04:00am 14.8 11.6 11.2 79 1.9 SSE 19 24 10 13 1009.3 1009.3 0.2
27/03:30am 14.8 11.8 11.8 82 1.6 SSE 19 24 10 13 1009.3 1009.3 0.2
27/03:00am 14.9 12.3 12.0 83 1.6 SSE 17 20 9 11 1009.3 1009.3 0.2
27/02:30am 14.8 12.1 11.6 81 1.7 SSE 17 22 9 12 1009.4 1009.4 0.2
27/02:00am 15.2 12.0 11.4 78 2.0 SSE 19 26 10 14 1009.6 1009.6 0.2
27/01:30am 15.6 11.9 11.6 77 2.2 SSE 22 30 12 16 1009.9 1009.9 0.2
27/01:00am 16.1 11.6 11.5 74 2.5 SSE 26 32 14 17 1009.8 1009.8 0.2
27/12:30am 15.7 12.1 11.7 77 2.2 SSE 22 30 12 16 1009.5 1009.5 0.2
27/12:00am 16.2 12.3 12.0 76 2.3 SSE 24 37 13 20 1009.5 1009.5 0.2
 
Date/Time
EDT
Temp
°C
App
Temp
°C
Dew
Point
Rel
Hum
%
Delta-T
°C
Wind Press
QNH
hPa
Press
MSL
hPa
Rain
since 9 am
mm
Dir
 
Spd
km/h
Gust
km/h
Spd
kts
Gust
kts
26/11:30pm 17.3 13.0 13.2 77 2.3 S 28 35 15 19 1009.3 1009.3 0.2
26/11:00pm 18.0 14.2 13.5 75 2.6 S 26 32 14 17 1009.0 1009.0 0.2
26/10:30pm 18.9 17.6 13.7 72 3.0 SW 13 19 7 10 1008.9 1008.9 0.2
26/10:00pm 19.7 17.6 13.6 68 3.5 WSW 17 20 9 11 1008.5 1008.5 0.2
26/09:30pm 18.9 20.5 15.0 78 2.3 CALM 0 6 0 3 1008.5 1008.5 0.2
26/09:00pm 20.1 19.6 14.9 72 3.1 SSW 11 17 6 9 1008.1 1008.1 0.2
26/08:30pm 20.7 20.0 15.5 72 3.1 SW 13 20 7 11 1007.6 1007.6 0.2
26/08:00pm 20.8 18.8 15.6 72 3.1 W 20 32 11 17 1007.1 1007.1 0.2
26/07:30pm 20.2 18.8 17.0 82 1.9 WNW 20 28 11 15 1006.7 1006.7 0.2
26/07:00pm 20.1 17.4 16.7 81 2.1 NW 26 32 14 17 1006.7 1006.7 0.2
26/06:30pm 20.8 17.6 16.4 76 2.7 NW 28 32 15 17 1006.6 1006.6 0.2

Other Formats:

Comma delimited format used in spreadsheet applications
http://www.bom.gov.au/fwo/IDT60801/IDT60801.95964.axf

JavaScript Object Notation format (JSON) in row-major order
http://www.bom.gov.au/fwo/IDT60801/IDT60801.95964.json